Time,TemperatureF,DewpointF,PressureIn,WindDirection,WindDirectionDegrees,WindSpeedMPH,WindSpeedGustMPH,Humidity,HourlyPrecipIn,Conditions,Clouds,dailyrainin,SoftwareType,DateUTC
2013-06-17 00:00:00,48.3,37.1,29.92,South,180,0.0,1.0,65,0.00,,---,0.00,VWS V12.07,2013-06-17 07:00:00,
2013-06-17 00:10:00,47.7,36.5,29.92,South,180,0.0,0.0,65,0.00,,---,0.00,VWS V12.07,2013-06-17 07:10:00,
2013-06-17 00:20:00,47.3,36.2,29.91,South,180,0.0,0.0,65,0.00,,---,0.00,VWS V12.07,2013-06-17 07:20:00,
2013-06-17 00:30:00,46.5,36.2,29.91,South,180,0.0,2.0,67,0.00,,---,0.00,VWS V12.07,2013-06-17 07:30:00,
2013-06-17 00:40:00,46.5,36.2,29.91,South,180,0.0,2.0,67,0.00,,---,0.00,VWS V12.07,2013-06-17 07:40:00,
2013-06-17 00:50:00,46.1,35.8,29.92,South,180,0.0,2.0,67,0.00,,---,0.00,VWS V12.07,2013-06-17 07:50:00,
2013-06-17 01:00:00,46.0,35.7,29.92,South,180,0.0,0.0,67,0.00,,---,0.00,VWS V12.07,2013-06-17 08:00:00,
2013-06-17 01:10:00,46.1,35.8,29.92,South,180,0.0,0.0,67,0.00,,---,0.00,VWS V12.07,2013-06-17 08:10:00,
2013-06-17 01:20:00,45.8,35.5,29.91,South,180,0.0,0.0,67,0.00,,---,0.00,VWS V12.07,2013-06-17 08:20:00,
2013-06-17 01:30:00,45.7,35.8,29.91,South,180,0.0,0.0,68,0.00,,---,0.00,VWS V12.07,2013-06-17 08:30:00,
2013-06-17 01:40:00,45.1,34.8,29.91,South,180,0.0,0.0,67,0.00,,---,0.00,VWS V12.07,2013-06-17 08:40:00,
2013-06-17 01:50:00,43.9,34.8,29.91,South,180,0.0,2.0,70,0.00,,---,0.00,VWS V12.07,2013-06-17 08:50:00,
2013-06-17 02:00:00,43.5,34.0,29.92,South,180,0.0,0.0,69,0.00,,---,0.00,VWS V12.07,2013-06-17 09:00:00,
2013-06-17 02:10:00,43.2,33.7,29.92,South,180,0.0,0.0,69,0.00,,---,0.00,VWS V12.07,2013-06-17 09:10:00,
2013-06-17 02:20:00,42.5,33.4,29.91,South,180,0.0,2.0,70,0.00,,---,0.00,VWS V12.07,2013-06-17 09:20:00,
2013-06-17 02:30:00,42.3,33.9,29.90,South,180,0.0,2.0,72,0.00,,---,0.00,VWS V12.07,2013-06-17 09:30:00,
2013-06-17 02:40:00,42.2,33.5,29.90,South,180,0.0,0.0,71,0.00,,---,0.00,VWS V12.07,2013-06-17 09:40:00,
2013-06-17 02:50:00,41.1,33.1,29.90,South,180,0.0,1.0,73,0.00,,---,0.00,VWS V12.07,2013-06-17 09:50:00,
2013-06-17 03:00:00,40.6,33.0,29.90,South,180,0.0,0.0,74,0.00,,---,0.00,VWS V12.07,2013-06-17 10:00:00,
2013-06-17 03:10:00,40.3,32.7,29.90,South,180,0.0,0.0,74,0.00,,---,0.00,VWS V12.07,2013-06-17 10:10:00,
2013-06-17 03:20:00,40.1,32.5,29.92,South,180,0.0,0.0,74,0.00,,---,0.00,VWS V12.07,2013-06-17 10:20:00,
2013-06-17 03:30:00,39.8,32.2,29.92,South,180,0.0,0.0,74,0.00,,---,0.00,VWS V12.07,2013-06-17 10:30:00,
2013-06-17 03:40:00,39.5,32.2,29.92,South,180,0.0,0.0,75,0.00,,---,0.00,VWS V12.07,2013-06-17 10:40:00,
2013-06-17 03:50:00,39.3,32.0,29.92,South,180,0.0,0.0,75,0.00,,---,0.00,VWS V12.07,2013-06-17 10:50:00,
2013-06-17 04:00:00,38.8,31.2,29.92,South,180,0.0,0.0,74,0.00,,---,0.00,VWS V12.07,2013-06-17 11:00:00,
2013-06-17 04:10:00,38.6,25.9,29.92,South,180,0.0,0.0,60,0.00,,---,0.00,VWS V12.07,2013-06-17 11:10:00,
2013-06-17 04:20:00,38.3,25.6,29.93,South,180,0.0,0.0,60,0.00,,---,0.00,VWS V12.07,2013-06-17 11:20:00,
2013-06-17 04:30:00,38.2,25.1,29.93,South,180,0.0,0.0,59,0.00,,---,0.00,VWS V12.07,2013-06-17 11:30:00,
2013-06-17 04:40:00,38.0,25.0,29.93,South,180,0.0,1.0,59,0.00,,---,0.00,VWS V12.07,2013-06-17 11:40:00,
2013-06-17 04:50:00,38.2,25.1,29.93,South,180,0.0,0.0,59,0.00,,---,0.00,VWS V12.07,2013-06-17 11:50:00,
2013-06-17 05:00:00,38.3,25.2,29.93,South,180,0.0,3.0,59,0.00,,---,0.00,VWS V12.07,2013-06-17 12:00:00,
2013-06-17 05:10:00,38.0,24.5,29.93,South,180,0.0,3.0,58,0.00,,---,0.00,VWS V12.07,2013-06-17 12:10:00,
2013-06-17 05:20:00,37.8,24.4,29.93,South,180,0.0,0.0,58,0.00,,---,0.00,VWS V12.07,2013-06-17 12:20:00,
2013-06-17 05:30:00,37.8,24.8,29.93,South,180,0.0,0.0,59,0.00,,---,0.00,VWS V12.07,2013-06-17 12:30:00,
2013-06-17 05:40:00,37.8,25.2,29.93,South,180,0.0,0.0,60,0.00,,---,0.00,VWS V12.07,2013-06-17 12:40:00,
2013-06-17 05:50:00,38.2,24.3,29.91,South,180,0.0,0.0,57,0.00,,---,0.00,VWS V12.07,2013-06-17 12:50:00,
2013-06-17 06:00:00,38.5,24.6,29.93,South,180,0.0,0.0,57,0.00,,---,0.00,VWS V12.07,2013-06-17 13:00:00,
2013-06-17 06:10:00,38.6,24.7,29.93,South,180,0.0,0.0,57,0.00,,---,0.00,VWS V12.07,2013-06-17 13:10:00,
2013-06-17 06:20:00,39.3,25.4,29.95,South,180,0.0,0.0,57,0.00,,---,0.00,VWS V12.07,2013-06-17 13:20:00,
2013-06-17 06:40:00,42.8,29.1,29.94,South,180,0.0,3.0,58,0.00,,---,0.00,VWS V12.07,2013-06-17 13:40:00,
2013-06-17 06:50:00,46.0,32.1,29.92,South,180,2.0,3.0,58,0.00,,---,0.00,VWS V12.07,2013-06-17 13:50:00,
2013-06-17 07:00:00,48.6,33.2,29.90,South,180,2.0,3.0,55,0.00,,---,0.00,VWS V12.07,2013-06-17 14:00:00,
2013-06-17 07:10:00,51.1,34.1,29.90,South,180,2.0,7.0,52,0.00,,---,0.00,VWS V12.07,2013-06-17 14:10:00,
2013-06-17 07:20:00,52.3,34.7,29.89,South,180,5.0,10.0,51,0.00,,---,0.00,VWS V12.07,2013-06-17 14:20:00,
2013-06-17 07:30:00,53.1,34.5,29.88,South,180,4.0,11.0,49,0.00,,---,0.00,VWS V12.07,2013-06-17 14:30:00,
2013-06-17 07:40:00,53.9,35.2,29.88,SSW,202,3.0,8.0,49,0.00,,---,0.00,VWS V12.07,2013-06-17 14:40:00,
2013-06-17 07:50:00,54.7,35.4,29.87,South,180,3.0,7.0,48,0.00,,---,0.00,VWS V12.07,2013-06-17 14:50:00,
2013-06-17 08:00:00,55.3,36.0,29.87,South,180,4.0,8.0,48,0.00,,---,0.00,VWS V12.07,2013-06-17 15:00:00,
2013-06-17 08:10:00,56.0,36.6,29.87,South,180,4.0,11.0,48,0.00,,---,0.00,VWS V12.07,2013-06-17 15:10:00,
2013-06-17 08:20:00,56.5,45.7,29.87,South,180,5.0,11.0,67,0.00,,---,0.00,VWS V12.07,2013-06-17 15:20:00,
2013-06-17 08:30:00,57.2,45.2,29.87,South,180,5.0,10.0,64,0.00,,---,0.00,VWS V12.07,2013-06-17 15:30:00,
2013-06-17 08:40:00,57.8,45.7,29.87,South,180,5.0,12.0,64,0.00,,---,0.00,VWS V12.07,2013-06-17 15:40:00,
2013-06-17 08:50:00,58.6,45.2,29.86,South,180,4.0,11.0,61,0.00,,---,0.00,VWS V12.07,2013-06-17 15:50:00,
2013-06-17 09:00:00,58.9,45.1,29.85,South,180,6.0,13.0,60,0.00,,---,0.00,VWS V12.07,2013-06-17 16:00:00,
2013-06-17 09:10:00,59.9,37.4,29.85,South,180,5.0,12.0,43,0.00,,---,0.00,VWS V12.07,2013-06-17 16:10:00,
2013-06-17 09:20:00,61.0,37.8,29.86,SSW,202,4.0,10.0,42,0.00,,---,0.00,VWS V12.07,2013-06-17 16:20:00,
2013-06-17 09:30:00,62.3,39.5,29.85,South,180,4.0,13.0,43,0.00,,---,0.00,VWS V12.07,2013-06-17 16:30:00,
2013-06-17 09:40:00,62.4,39.0,29.85,South,180,4.0,11.0,42,0.00,,---,0.00,VWS V12.07,2013-06-17 16:40:00,
2013-06-17 09:50:00,64.0,39.8,29.84,SSW,202,2.0,11.0,41,0.00,,---,0.00,VWS V12.07,2013-06-17 16:50:00,
2013-06-17 10:00:00,64.3,39.5,29.83,South,180,4.0,10.0,40,0.00,,---,0.00,VWS V12.07,2013-06-17 17:00:00,
2013-06-17 10:10:00,65.5,39.9,29.83,South,180,4.0,14.0,39,0.00,,---,0.00,VWS V12.07,2013-06-17 17:10:00,
2013-06-17 10:20:00,65.3,39.1,29.84,South,180,6.0,14.0,38,0.00,,---,0.00,VWS V12.07,2013-06-17 17:20:00,
2013-06-17 10:30:00,66.3,38.6,29.84,South,180,3.0,11.0,36,0.00,,---,0.00,VWS V12.07,2013-06-17 17:30:00,
2013-06-17 10:40:00,66.8,38.3,29.84,South,180,6.0,17.0,35,0.00,,---,0.00,VWS V12.07,2013-06-17 17:40:00,
2013-06-17 10:50:00,67.6,39.0,29.83,SSW,202,5.0,12.0,35,0.00,,---,0.00,VWS V12.07,2013-06-17 17:50:00,
2013-06-17 11:00:00,69.1,40.3,29.81,South,180,3.0,11.0,35,0.00,,---,0.00,VWS V12.07,2013-06-17 18:00:00,
2013-06-17 11:10:00,67.9,40.0,29.81,South,180,6.0,15.0,36,0.00,,---,0.00,VWS V12.07,2013-06-17 18:10:00,
2013-06-17 11:20:00,68.4,40.4,29.83,South,180,6.0,14.0,36,0.00,,---,0.00,VWS V12.07,2013-06-17 18:20:00,
2013-06-17 11:30:00,69.9,40.3,29.81,South,180,6.0,19.0,34,0.00,,---,0.00,VWS V12.07,2013-06-17 18:30:00,
2013-06-17 11:40:00,68.8,40.1,29.81,SSW,202,9.0,17.0,35,0.00,,---,0.00,VWS V12.07,2013-06-17 18:40:00,
2013-06-17 11:50:00,70.3,41.4,29.82,South,180,6.0,19.0,35,0.00,,---,0.00,VWS V12.07,2013-06-17 18:50:00,
2013-06-17 12:00:00,70.4,40.0,29.80,South,180,6.0,15.0,33,0.00,,---,0.00,VWS V12.07,2013-06-17 19:00:00,
2013-06-17 12:10:00,70.1,39.7,29.80,SSW,202,4.0,12.0,33,0.00,,---,0.00,VWS V12.07,2013-06-17 19:10:00,
2013-06-17 12:20:00,70.1,39.7,29.80,South,180,6.0,14.0,33,0.00,,---,0.00,VWS V12.07,2013-06-17 19:20:00,
2013-06-17 12:30:00,69.4,39.8,29.80,South,180,6.0,16.0,34,0.00,,---,0.00,VWS V12.07,2013-06-17 19:30:00,
2013-06-17 12:40:00,70.3,39.9,29.80,South,180,5.0,18.0,33,0.00,,---,0.00,VWS V12.07,2013-06-17 19:40:00,
2013-06-17 12:50:00,72.3,39.2,29.79,SSW,202,5.0,16.0,30,0.00,,---,0.00,VWS V12.07,2013-06-17 19:50:00,
2013-06-17 13:00:00,73.2,39.9,29.78,South,180,5.0,14.0,30,0.00,,---,0.00,VWS V12.07,2013-06-17 20:00:00,
2013-06-17 13:10:00,73.2,40.8,29.78,South,180,4.0,13.0,31,0.00,,---,0.00,VWS V12.07,2013-06-17 20:10:00,
2013-06-17 13:20:00,72.7,39.5,29.78,SSE,158,4.0,11.0,30,0.00,,---,0.00,VWS V12.07,2013-06-17 20:20:00,
2013-06-17 13:30:00,72.8,39.6,29.78,South,180,5.0,12.0,30,0.00,,---,0.00,VWS V12.07,2013-06-17 20:30:00,
2013-06-17 13:40:00,73.0,40.6,29.78,SSW,202,3.0,11.0,31,0.00,,---,0.00,VWS V12.07,2013-06-17 20:40:00,
2013-06-17 13:50:00,73.5,39.3,29.77,SSW,202,3.0,8.0,29,0.00,,---,0.00,VWS V12.07,2013-06-17 20:50:00,
2013-06-17 14:00:00,72.7,39.5,29.77,South,180,6.0,13.0,30,0.00,,---,0.00,VWS V12.07,2013-06-17 21:00:00,
2013-06-17 14:10:00,73.7,39.5,29.77,South,180,4.0,12.0,29,0.00,,---,0.00,VWS V12.07,2013-06-17 21:10:00,
2013-06-17 14:20:00,72.3,38.3,29.78,South,180,7.0,18.0,29,0.00,,---,0.00,VWS V12.07,2013-06-17 21:20:00,
2013-06-17 14:30:00,72.8,37.8,29.77,South,180,6.0,18.0,28,0.00,,---,0.00,VWS V12.07,2013-06-17 21:30:00,
2013-06-17 14:40:00,74.0,38.9,29.77,SSW,202,5.0,16.0,28,0.00,,---,0.00,VWS V12.07,2013-06-17 21:40:00,
2013-06-17 14:50:00,73.7,38.6,29.76,South,180,2.0,11.0,28,0.00,,---,0.00,VWS V12.07,2013-06-17 21:50:00,
2013-06-17 15:00:00,72.5,37.6,29.77,South,180,3.0,14.0,28,0.00,,---,0.00,VWS V12.07,2013-06-17 22:00:00,
2013-06-17 15:10:00,72.3,38.3,29.77,SSW,202,2.0,7.0,29,0.00,,---,0.00,VWS V12.07,2013-06-17 22:10:00,
2013-06-17 15:20:00,73.0,37.1,29.78,South,180,2.0,10.0,27,0.00,,---,0.00,VWS V12.07,2013-06-17 22:20:00,
2013-06-17 15:32:00,76.0,29.5,29.77,South,180,7.0,14.0,18,0.00,,---,0.00,VWS V12.07,2013-06-17 22:32:00,
2013-06-17 15:33:00,74.4,38.3,29.80,SSW,202,3.0,19.0,27,0.00,,---,0.00,VWS V12.07,2013-06-17 22:33:00,
2013-06-17 15:34:00,72.8,36.9,29.77,South,176,8.0,19.0,27,0.00,,---,0.00,VWS V12.07,2013-06-17 22:34:00,
2013-06-17 15:37:00,72.7,37.8,29.77,NNW,343,4.0,10.0,28,0.00,,---,0.00,VWS V12.07,2013-06-17 22:37:00,
2013-06-17 15:38:00,72.7,37.8,29.77,South,181,5.0,10.0,28,0.00,,---,0.00,VWS V12.07,2013-06-17 22:38:00,
2013-06-17 15:39:00,72.7,37.8,29.77,South,181,4.0,10.0,28,0.00,,---,0.00,VWS V12.07,2013-06-17 22:39:00,
2013-06-17 15:42:00,73.0,38.0,29.77,NW,319,0.0,10.0,28,0.00,,---,0.00,VWS V12.07,2013-06-17 22:42:00,
2013-06-17 15:43:00,73.0,38.9,29.77,NW,319,1.0,10.0,29,0.00,,---,0.00,VWS V12.07,2013-06-17 22:43:00,
2013-06-17 15:44:00,73.2,39.1,29.77,NW,315,1.0,10.0,29,0.00,,---,0.00,VWS V12.07,2013-06-17 22:44:00,
2013-06-17 15:47:00,73.3,40.0,29.77,SSW,200,10.0,10.0,30,0.00,,---,0.00,VWS V12.07,2013-06-17 22:47:00,
2013-06-17 15:49:00,73.0,38.0,29.77,South,188,7.0,16.0,28,0.00,,---,0.00,VWS V12.07,2013-06-17 22:49:00,
2013-06-17 15:50:00,72.8,36.9,29.77,South,189,9.0,16.0,27,0.00,,---,0.00,VWS V12.07,2013-06-17 22:50:00,
2013-06-17 15:53:00,73.3,38.3,29.77,SSW,199,2.0,16.0,28,0.00,,---,0.00,VWS V12.07,2013-06-17 22:53:00,
2013-06-17 15:54:00,73.3,38.3,29.77,SSW,193,6.0,16.0,28,0.00,,---,0.00,VWS V12.07,2013-06-17 22:54:00,
2013-06-17 15:55:00,73.5,38.4,29.77,South,178,5.0,16.0,28,0.00,,---,0.00,VWS V12.07,2013-06-17 22:55:00,
2013-06-17 15:58:00,73.3,37.3,29.77,South,189,1.0,16.0,27,0.00,,---,0.00,VWS V12.07,2013-06-17 22:58:00,
2013-06-17 15:59:00,73.3,37.3,29.77,South,191,2.0,16.0,27,0.00,,---,0.00,VWS V12.07,2013-06-17 22:59:00,
2013-06-17 16:00:00,73.3,37.3,29.77,South,191,0.0,16.0,27,0.00,,---,0.00,VWS V12.07,2013-06-17 23:00:00,
2013-06-17 16:04:00,73.7,38.6,29.77,South,174,6.0,16.0,28,0.00,,---,0.00,VWS V12.07,2013-06-17 23:04:00,
2013-06-17 16:05:00,73.5,38.4,29.77,South,178,2.0,16.0,28,0.00,,---,0.00,VWS V12.07,2013-06-17 23:05:00,
2013-06-17 16:06:00,73.5,38.4,29.77,NNW,329,0.0,16.0,28,0.00,,---,0.00,VWS V12.07,2013-06-17 23:06:00,
2013-06-17 16:09:00,73.5,38.4,29.77,South,172,7.0,16.0,28,0.00,,---,0.00,VWS V12.07,2013-06-17 23:09:00,
2013-06-17 16:10:00,73.7,38.6,29.77,SSW,200,1.0,16.0,28,0.00,,---,0.00,VWS V12.07,2013-06-17 23:10:00,
2013-06-17 16:11:00,73.7,38.6,29.77,SSW,202,0.0,16.0,28,0.00,,---,0.00,VWS V12.07,2013-06-17 23:11:00,
2013-06-17 16:15:00,73.5,38.4,29.76,SSE,148,0.0,16.0,28,0.00,,---,0.00,VWS V12.07,2013-06-17 23:15:00,
2013-06-17 16:16:00,73.3,38.3,29.76,SSE,167,4.0,16.0,28,0.00,,---,0.00,VWS V12.07,2013-06-17 23:16:00,
2013-06-17 16:17:00,73.2,37.2,29.76,SSE,168,2.0,16.0,27,0.00,,---,0.00,VWS V12.07,2013-06-17 23:17:00,
2013-06-17 16:20:00,72.8,37.8,29.76,NW,316,1.0,16.0,28,0.00,,---,0.00,VWS V12.07,2013-06-17 23:20:00,
2013-06-17 16:21:00,72.8,37.8,29.76,SSW,213,2.0,16.0,28,0.00,,---,0.00,VWS V12.07,2013-06-17 23:21:00,
2013-06-17 16:22:00,72.7,38.6,29.76,South,179,0.0,16.0,29,0.00,,---,0.00,VWS V12.07,2013-06-17 23:22:00,
2013-06-17 16:25:00,72.1,39.0,29.76,WNW,299,1.0,16.0,30,0.00,,---,0.00,VWS V12.07,2013-06-17 23:25:00,
2013-06-17 16:26:00,72.3,38.3,29.76,WNW,298,1.0,16.0,29,0.00,,---,0.00,VWS V12.07,2013-06-17 23:26:00,
2013-06-17 16:27:00,72.5,38.5,29.76,SSW,213,1.0,16.0,29,0.00,,---,0.00,VWS V12.07,2013-06-17 23:27:00,
2013-06-17 16:30:00,72.3,38.3,29.77,South,175,6.0,16.0,29,0.00,,---,0.00,VWS V12.07,2013-06-17 23:30:00,
2013-06-17 16:31:00,72.3,37.4,29.77,South,176,4.0,16.0,28,0.00,,---,0.00,VWS V12.07,2013-06-17 23:31:00,
2013-06-17 16:32:00,72.5,40.2,29.77,South,176,5.0,16.0,31,0.00,,---,0.00,VWS V12.07,2013-06-17 23:32:00,
2013-06-17 16:33:00,72.5,40.2,29.77,SW,215,1.0,16.0,31,0.00,,---,0.00,VWS V12.07,2013-06-17 23:33:00,
2013-06-17 16:36:00,73.0,39.8,29.77,South,191,2.0,16.0,30,0.00,,---,0.00,VWS V12.07,2013-06-17 23:36:00,
2013-06-17 16:37:00,73.0,38.0,29.77,South,191,2.0,16.0,28,0.00,,---,0.00,VWS V12.07,2013-06-17 23:37:00,
2013-06-17 16:38:00,73.0,38.9,29.77,South,191,0.0,16.0,29,0.00,,---,0.00,VWS V12.07,2013-06-17 23:38:00,
2013-06-17 16:41:00,72.5,38.5,29.77,SSW,192,0.0,16.0,29,0.00,,---,0.00,VWS V12.07,2013-06-17 23:41:00,
2013-06-17 16:42:00,72.5,39.3,29.77,SSW,192,0.0,16.0,30,0.00,,---,0.00,VWS V12.07,2013-06-17 23:42:00,
2013-06-17 16:43:00,72.5,38.5,29.77,SSW,192,0.0,16.0,29,0.00,,---,0.00,VWS V12.07,2013-06-17 23:43:00,
2013-06-17 16:46:00,72.0,38.9,29.76,South,182,2.0,16.0,30,0.00,,---,0.00,VWS V12.07,2013-06-17 23:46:00,
2013-06-17 16:47:00,71.6,38.6,29.76,South,182,3.0,16.0,30,0.00,,---,0.00,VWS V12.07,2013-06-17 23:47:00,
2013-06-17 16:48:00,71.5,39.3,29.76,South,184,5.0,16.0,31,0.00,,---,0.00,VWS V12.07,2013-06-17 23:48:00,
2013-06-17 16:49:00,71.3,40.0,29.76,South,178,2.0,16.0,32,0.00,,---,0.00,VWS V12.07,2013-06-17 23:49:00,
2013-06-17 16:51:00,71.1,38.1,29.76,South,178,3.0,16.0,30,0.00,,---,0.00,VWS V12.07,2013-06-17 23:51:00,
2013-06-17 16:52:00,70.9,38.0,29.76,South,178,7.0,16.0,30,0.00,,---,0.00,VWS V12.07,2013-06-17 23:52:00,
2013-06-17 16:53:00,70.9,38.0,29.76,South,178,2.0,16.0,30,0.00,,---,0.00,VWS V12.07,2013-06-17 23:53:00,
2013-06-17 16:54:00,70.9,38.0,29.76,SSE,164,2.0,16.0,30,0.00,,---,0.00,VWS V12.07,2013-06-17 23:54:00,
2013-06-17 16:55:00,70.9,39.6,29.76,SSW,198,4.0,16.0,32,0.00,,---,0.00,VWS V12.07,2013-06-17 23:55:00,
2013-06-17 16:56:00,71.1,39.8,29.76,South,191,5.0,16.0,32,0.00,,---,0.00,VWS V12.07,2013-06-17 23:56:00,
2013-06-17 16:57:00,71.1,39.8,29.76,South,176,5.0,16.0,32,0.00,,---,0.00,VWS V12.07,2013-06-17 23:57:00,
2013-06-17 16:58:00,71.3,38.3,29.76,SSW,192,7.0,16.0,30,0.00,,---,0.00,VWS V12.07,2013-06-17 23:58:00,
2013-06-17 16:59:00,71.3,40.0,29.77,South,185,3.0,16.0,32,0.00,,---,0.00,VWS V12.07,2013-06-17 23:59:00,
2013-06-17 17:01:00,71.5,39.3,29.77,South,182,3.0,16.0,31,0.00,,---,0.00,VWS V12.07,2013-06-18 00:01:00,
2013-06-17 17:02:00,71.3,39.1,29.77,South,176,2.0,16.0,31,0.00,,---,0.00,VWS V12.07,2013-06-18 00:02:00,
2013-06-17 17:03:00,71.3,39.1,29.77,South,184,8.0,16.0,31,0.00,,---,0.00,VWS V12.07,2013-06-18 00:03:00,
2013-06-17 17:04:00,71.3,39.1,29.77,South,189,5.0,16.0,31,0.00,,---,0.00,VWS V12.07,2013-06-18 00:04:00,
2013-06-17 17:06:00,71.1,39.8,29.77,South,178,7.0,16.0,32,0.00,,---,0.00,VWS V12.07,2013-06-18 00:06:00,
2013-06-17 17:08:00,70.9,38.8,29.77,South,178,0.0,16.0,31,0.00,,---,0.00,VWS V12.07,2013-06-18 00:08:00,
2013-06-17 17:09:00,70.9,38.8,29.77,South,178,0.0,16.0,31,0.00,,---,0.00,VWS V12.07,2013-06-18 00:09:00,
2013-06-17 17:11:00,71.1,39.0,29.77,NE,38,1.0,16.0,31,0.00,,---,0.00,VWS V12.07,2013-06-18 00:11:00,
2013-06-17 17:13:00,71.5,39.3,29.77,SSW,212,6.0,16.0,31,0.00,,---,0.00,VWS V12.07,2013-06-18 00:13:00,
2013-06-17 17:14:00,71.6,40.2,29.76,South,182,2.0,16.0,32,0.00,,---,0.00,VWS V12.07,2013-06-18 00:14:00,
2013-06-17 17:16:00,71.6,40.2,29.76,South,182,1.0,16.0,32,0.00,,---,0.00,VWS V12.07,2013-06-18 00:16:00,
2013-06-17 17:18:00,71.6,39.4,29.76,South,179,0.0,16.0,31,0.00,,---,0.00,VWS V12.07,2013-06-18 00:18:00,
2013-06-17 17:19:00,71.6,39.4,29.76,South,179,2.0,16.0,31,0.00,,---,0.00,VWS V12.07,2013-06-18 00:19:00,
2013-06-17 17:20:00,71.6,39.4,29.76,South,179,2.0,16.0,31,0.00,,---,0.00,VWS V12.07,2013-06-18 00:20:00,
2013-06-17 17:21:00,71.5,40.1,29.76,South,178,0.0,16.0,32,0.00,,---,0.00,VWS V12.07,2013-06-18 00:21:00,
2013-06-17 17:23:00,70.9,39.6,29.76,South,184,3.0,16.0,32,0.00,,---,0.00,VWS V12.07,2013-06-18 00:23:00,
2013-06-17 17:24:00,70.9,39.6,29.76,South,184,1.0,16.0,32,0.00,,---,0.00,VWS V12.07,2013-06-18 00:24:00,
2013-06-17 17:25:00,70.9,39.6,29.76,South,184,0.0,16.0,32,0.00,,---,0.00,VWS V12.07,2013-06-18 00:25:00,
2013-06-17 17:27:00,70.6,39.3,29.76,South,184,0.0,16.0,32,0.00,,---,0.00,VWS V12.07,2013-06-18 00:27:00,
2013-06-17 17:28:00,70.8,39.5,29.76,South,184,0.0,16.0,32,0.00,,---,0.00,VWS V12.07,2013-06-18 00:28:00,
2013-06-17 17:29:00,70.8,39.5,29.76,South,184,0.0,16.0,32,0.00,,---,0.00,VWS V12.07,2013-06-18 00:29:00,
2013-06-17 17:30:00,70.8,39.5,29.76,South,184,0.0,16.0,32,0.00,,---,0.00,VWS V12.07,2013-06-18 00:30:00,
2013-06-17 17:32:00,70.8,40.3,29.76,South,184,0.0,16.0,33,0.00,,---,0.00,VWS V12.07,2013-06-18 00:32:00,
2013-06-17 17:34:00,70.8,41.1,29.76,SSW,192,1.0,16.0,34,0.00,,---,0.00,VWS V12.07,2013-06-18 00:34:00,
2013-06-17 17:35:00,70.8,40.3,29.76,South,186,2.0,16.0,33,0.00,,---,0.00,VWS V12.07,2013-06-18 00:35:00,
2013-06-17 17:37:00,70.8,40.3,29.76,South,189,0.0,16.0,33,0.00,,---,0.00,VWS V12.07,2013-06-18 00:37:00,
2013-06-17 17:39:00,70.9,40.4,29.76,South,189,0.0,16.0,33,0.00,,---,0.00,VWS V12.07,2013-06-18 00:39:00,
2013-06-17 17:40:00,71.1,39.8,29.76,NNE,28,0.0,16.0,32,0.00,,---,0.00,VWS V12.07,2013-06-18 00:40:00,
2013-06-17 17:41:00,71.3,40.0,29.76,NNE,30,2.0,16.0,32,0.00,,---,0.00,VWS V12.07,2013-06-18 00:41:00,
2013-06-17 17:42:00,71.5,38.5,29.76,NNW,335,1.0,16.0,30,0.00,,---,0.00,VWS V12.07,2013-06-18 00:42:00,
2013-06-17 17:44:00,71.8,37.9,29.76,North,349,5.0,16.0,29,0.00,,---,0.00,VWS V12.07,2013-06-18 00:44:00,
2013-06-17 17:45:00,72.0,38.9,29.76,NNW,343,0.0,16.0,30,0.00,,---,0.00,VWS V12.07,2013-06-18 00:45:00,
2013-06-17 17:46:00,72.3,39.2,29.76,NW,319,5.0,16.0,30,0.00,,---,0.00,VWS V12.07,2013-06-18 00:46:00,
2013-06-17 17:47:00,72.3,39.2,29.76,NW,319,0.0,16.0,30,0.00,,---,0.00,VWS V12.07,2013-06-18 00:47:00,
2013-06-17 17:49:00,72.8,38.7,29.76,SSW,193,8.0,16.0,29,0.00,,---,0.00,VWS V12.07,2013-06-18 00:49:00,
2013-06-17 17:50:00,73.0,38.9,29.76,North,0,0.0,16.0,29,0.00,,---,0.00,VWS V12.07,2013-06-18 00:50:00,
2013-06-17 17:52:00,72.7,40.3,29.76,South,169,5.0,16.0,31,0.00,,---,0.00,VWS V12.07,2013-06-18 00:52:00,
2013-06-17 17:54:00,72.1,39.0,29.76,South,182,7.0,16.0,30,0.00,,---,0.00,VWS V12.07,2013-06-18 00:54:00,
2013-06-17 17:55:00,71.8,39.6,29.76,South,186,7.0,16.0,31,0.00,,---,0.00,VWS V12.07,2013-06-18 00:55:00,
2013-06-17 17:57:00,72.0,39.7,29.76,NNW,329,0.0,16.0,31,0.00,,---,0.00,VWS V12.07,2013-06-18 00:57:00,
2013-06-17 17:59:00,72.5,41.8,29.75,WSW,256,2.0,16.0,33,0.00,,---,0.00,VWS V12.07,2013-06-18 00:59:00,
2013-06-17 18:00:00,72.7,42.0,29.75,NW,326,2.0,16.0,33,0.00,,---,0.00,VWS V12.07,2013-06-18 01:00:00,
2013-06-17 18:02:00,73.0,40.6,29.75,NW,319,0.0,16.0,31,0.00,,---,0.00,VWS V12.07,2013-06-18 01:02:00,
2013-06-17 18:04:00,72.8,41.3,29.75,NW,319,7.0,16.0,32,0.00,,---,0.00,VWS V12.07,2013-06-18 01:04:00,
2013-06-17 18:05:00,72.8,41.3,29.75,NW,313,2.0,16.0,32,0.00,,---,0.00,VWS V12.07,2013-06-18 01:05:00,
2013-06-17 18:06:00,72.7,41.2,29.75,WNW,284,0.0,16.0,32,0.00,,---,0.00,VWS V12.07,2013-06-18 01:06:00,
2013-06-17 18:07:00,72.5,41.0,29.75,West,278,1.0,16.0,32,0.00,,---,0.00,VWS V12.07,2013-06-18 01:07:00,
2013-06-17 18:08:00,72.5,41.8,29.75,WNW,285,2.0,16.0,33,0.00,,---,0.00,VWS V12.07,2013-06-18 01:08:00,
2013-06-17 18:09:00,72.5,41.0,29.75,WNW,294,1.0,16.0,32,0.00,,---,0.00,VWS V12.07,2013-06-18 01:09:00,
2013-06-17 18:10:00,72.7,41.2,29.75,WNW,299,0.0,16.0,32,0.00,,---,0.00,VWS V12.07,2013-06-18 01:10:00,
2013-06-17 18:11:00,72.7,40.3,29.75,NW,309,1.0,16.0,31,0.00,,---,0.00,VWS V12.07,2013-06-18 01:11:00,
2013-06-17 18:13:00,72.7,42.0,29.75,SE,144,0.0,16.0,33,0.00,,---,0.00,VWS V12.07,2013-06-18 01:13:00,
2013-06-17 18:14:00,72.7,42.0,29.71,NW,323,0.0,16.0,33,0.00,,---,0.00,VWS V12.07,2013-06-18 01:14:00,
2013-06-17 18:15:00,72.8,42.0,29.71,NW,323,0.0,16.0,33,0.00,,---,0.00,VWS V12.07,2013-06-18 01:15:00,
2013-06-17 18:16:00,72.8,41.3,29.71,NW,322,0.0,16.0,32,0.00,,---,0.00,VWS V12.07,2013-06-18 01:16:00,
2013-06-17 18:18:00,73.0,41.4,29.71,NNW,339,0.0,16.0,32,0.00,,---,0.00,VWS V12.07,2013-06-18 01:18:00,
2013-06-17 18:19:00,73.0,41.4,29.71,WSW,240,3.0,16.0,32,0.00,,---,0.00,VWS V12.07,2013-06-18 01:19:00,
2013-06-17 18:20:00,72.8,42.0,29.71,WNW,291,0.0,16.0,33,0.00,,---,0.00,VWS V12.07,2013-06-18 01:20:00,
2013-06-17 18:21:00,73.0,41.4,29.71,WNW,291,0.0,16.0,32,0.00,,---,0.00,VWS V12.07,2013-06-18 01:21:00,
2013-06-17 18:24:00,72.0,41.3,29.71,WNW,294,2.0,16.0,33,0.00,,---,0.00,VWS V12.07,2013-06-18 01:24:00,
2013-06-17 18:25:00,71.8,41.2,29.71,NW,305,6.0,16.0,33,0.00,,---,0.00,VWS V12.07,2013-06-18 01:25:00,
2013-06-17 18:26:00,71.8,42.0,29.71,NW,309,1.0,16.0,34,0.00,,---,0.00,VWS V12.07,2013-06-18 01:26:00,
2013-06-17 18:29:00,71.8,41.2,29.72,NW,316,2.0,16.0,33,0.00,,---,0.00,VWS V12.07,2013-06-18 01:29:00,
2013-06-17 18:30:00,71.6,40.2,29.72,NNW,330,5.0,16.0,32,0.00,,---,0.00,VWS V12.07,2013-06-18 01:30:00,
2013-06-17 18:32:00,71.6,41.0,29.72,NNW,342,1.0,16.0,33,0.00,,---,0.00,VWS V12.07,2013-06-18 01:32:00,
2013-06-17 18:34:00,71.1,41.3,29.72,South,179,2.0,16.0,34,0.00,,---,0.00,VWS V12.07,2013-06-18 01:34:00,
2013-06-17 18:35:00,70.9,41.2,29.72,South,179,0.0,16.0,34,0.00,,---,0.00,VWS V12.07,2013-06-18 01:35:00,
2013-06-17 18:37:00,70.8,41.8,29.72,SSE,152,0.0,16.0,35,0.00,,---,0.00,VWS V12.07,2013-06-18 01:37:00,
2013-06-17 18:38:00,70.8,41.1,29.72,SSE,152,0.0,16.0,34,0.00,,---,0.00,VWS V12.07,2013-06-18 01:38:00,
2013-06-17 18:40:00,71.1,39.8,29.72,North,349,0.0,16.0,32,0.00,,---,0.00,VWS V12.07,2013-06-18 01:40:00,
2013-06-17 18:41:00,71.3,39.1,29.72,NNW,340,3.0,16.0,31,0.00,,---,0.00,VWS V12.07,2013-06-18 01:41:00,
2013-06-17 18:43:00,71.5,40.1,29.72,NNW,333,0.0,16.0,32,0.00,,---,0.00,VWS V12.07,2013-06-18 01:43:00,
2013-06-17 18:45:00,71.6,40.2,29.72,North,359,0.0,16.0,32,0.00,,---,0.00,VWS V12.07,2013-06-18 01:45:00,
2013-06-17 18:46:00,71.6,41.0,29.72,North,354,0.0,16.0,33,0.00,,---,0.00,VWS V12.07,2013-06-18 01:46:00,
2013-06-17 18:48:00,71.5,40.1,29.72,North,353,0.0,16.0,32,0.00,,---,0.00,VWS V12.07,2013-06-18 01:48:00,
2013-06-17 18:49:00,71.5,40.9,29.72,North,352,0.0,16.0,33,0.00,,---,0.00,VWS V12.07,2013-06-18 01:49:00,
2013-06-17 18:50:00,71.3,40.7,29.72,North,352,1.0,16.0,33,0.00,,---,0.00,VWS V12.07,2013-06-18 01:50:00,
2013-06-17 18:51:00,71.1,39.8,29.72,NW,311,0.0,16.0,32,0.00,,---,0.00,VWS V12.07,2013-06-18 01:51:00,
2013-06-17 18:54:00,70.4,40.7,29.72,WNW,292,2.0,16.0,34,0.00,,---,0.00,VWS V12.07,2013-06-18 01:54:00,
2013-06-17 18:55:00,70.3,40.6,29.72,WNW,295,0.0,16.0,34,0.00,,---,0.00,VWS V12.07,2013-06-18 01:55:00,
2013-06-17 18:56:00,70.3,40.6,29.72,WNW,294,0.0,16.0,34,0.00,,---,0.00,VWS V12.07,2013-06-18 01:56:00,
2013-06-17 18:57:00,69.9,40.3,29.72,WNW,288,2.0,16.0,34,0.00,,---,0.00,VWS V12.07,2013-06-18 01:57:00,
2013-06-17 18:59:00,69.9,40.3,29.72,WNW,295,0.0,16.0,34,0.00,,---,0.00,VWS V12.07,2013-06-18 01:59:00,
2013-06-17 19:00:00,69.9,40.3,29.73,NW,322,4.0,16.0,34,0.00,,---,0.00,VWS V12.07,2013-06-18 02:00:00,
2013-06-17 19:01:00,69.9,39.5,29.73,NW,322,2.0,16.0,33,0.00,,---,0.00,VWS V12.07,2013-06-18 02:01:00,
2013-06-17 19:03:00,70.1,39.7,29.73,NW,308,1.0,16.0,33,0.00,,---,0.00,VWS V12.07,2013-06-18 02:03:00,
2013-06-17 19:04:00,70.1,39.7,29.73,North,11,0.0,16.0,33,0.00,,---,0.00,VWS V12.07,2013-06-18 02:04:00,
2013-06-17 19:06:00,70.1,41.2,29.73,NW,320,0.0,16.0,35,0.00,,---,0.00,VWS V12.07,2013-06-18 02:06:00,
2013-06-17 19:08:00,69.9,41.0,29.73,NW,320,1.0,16.0,35,0.00,,---,0.00,VWS V12.07,2013-06-18 02:08:00,
2013-06-17 19:09:00,69.8,40.9,29.73,NW,320,1.0,16.0,35,0.00,,---,0.00,VWS V12.07,2013-06-18 02:09:00,
2013-06-17 19:11:00,69.8,40.2,29.73,North,359,3.0,16.0,34,0.00,,---,0.00,VWS V12.07,2013-06-18 02:11:00,
2013-06-17 19:12:00,69.8,40.2,29.73,NNW,333,4.0,16.0,34,0.00,,---,0.00,VWS V12.07,2013-06-18 02:12:00,
2013-06-17 19:13:00,69.6,40.0,29.73,West,281,0.0,16.0,34,0.00,,---,0.00,VWS V12.07,2013-06-18 02:13:00,
2013-06-17 19:15:00,69.4,40.6,29.70,West,281,0.0,16.0,35,0.00,,---,0.00,VWS V12.07,2013-06-18 02:15:00,
2013-06-17 19:17:00,69.6,40.8,29.70,WNW,285,0.0,16.0,35,0.00,,---,0.00,VWS V12.07,2013-06-18 02:17:00,
2013-06-17 19:18:00,69.6,40.0,29.70,NNW,346,0.0,16.0,34,0.00,,---,0.00,VWS V12.07,2013-06-18 02:18:00,
2013-06-17 19:21:00,69.6,40.0,29.70,NNW,342,0.0,16.0,34,0.00,,---,0.00,VWS V12.07,2013-06-18 02:21:00,
2013-06-17 19:22:00,69.8,40.2,29.70,NNW,342,0.0,16.0,34,0.00,,---,0.00,VWS V12.07,2013-06-18 02:22:00,
2013-06-17 19:23:00,69.8,40.2,29.70,NNW,342,0.0,16.0,34,0.00,,---,0.00,VWS V12.07,2013-06-18 02:23:00,
2013-06-17 19:24:00,69.8,40.2,29.70,NNW,342,0.0,16.0,34,0.00,,---,0.00,VWS V12.07,2013-06-18 02:24:00,
2013-06-17 19:26:00,69.8,40.2,29.70,WNW,289,2.0,16.0,34,0.00,,---,0.00,VWS V12.07,2013-06-18 02:26:00,
2013-06-17 19:27:00,69.8,40.9,29.70,West,278,0.0,16.0,35,0.00,,---,0.00,VWS V12.07,2013-06-18 02:27:00,
2013-06-17 19:28:00,69.8,40.9,29.70,West,278,0.0,16.0,35,0.00,,---,0.00,VWS V12.07,2013-06-18 02:28:00,
2013-06-17 19:29:00,69.8,40.9,29.70,West,280,0.0,16.0,35,0.00,,---,0.00,VWS V12.07,2013-06-18 02:29:00,
2013-06-17 19:31:00,69.4,41.3,29.70,WNW,296,5.0,16.0,36,0.00,,---,0.00,VWS V12.07,2013-06-18 02:31:00,
2013-06-17 19:32:00,69.3,41.2,29.70,WNW,292,0.0,16.0,36,0.00,,---,0.00,VWS V12.07,2013-06-18 02:32:00,
2013-06-17 19:33:00,69.3,41.2,29.70,WNW,292,0.0,16.0,36,0.00,,---,0.00,VWS V12.07,2013-06-18 02:33:00,
2013-06-17 19:34:00,69.1,41.0,29.70,WNW,289,0.0,16.0,36,0.00,,---,0.00,VWS V12.07,2013-06-18 02:34:00,
2013-06-17 19:36:00,68.9,40.9,29.70,North,359,0.0,16.0,36,0.00,,---,0.00,VWS V12.07,2013-06-18 02:36:00,
2013-06-17 19:38:00,68.8,40.8,29.70,North,357,0.0,16.0,36,0.00,,---,0.00,VWS V12.07,2013-06-18 02:38:00,
2013-06-17 19:39:00,68.6,39.9,29.70,NE,34,0.0,16.0,35,0.00,,---,0.00,VWS V12.07,2013-06-18 02:39:00,
2013-06-17 19:40:00,68.4,39.7,29.70,NE,35,0.0,16.0,35,0.00,,---,0.00,VWS V12.07,2013-06-18 02:40:00,
2013-06-17 19:41:00,68.4,40.4,29.70,WNW,298,2.0,16.0,36,0.00,,---,0.00,VWS V12.07,2013-06-18 02:41:00,
2013-06-17 19:43:00,67.9,40.7,29.70,SSW,205,2.0,16.0,37,0.00,,---,0.00,VWS V12.07,2013-06-18 02:43:00,
2013-06-17 19:44:00,67.9,40.7,29.70,East,92,2.0,16.0,37,0.00,,---,0.00,VWS V12.07,2013-06-18 02:44:00,
2013-06-17 19:45:00,67.6,40.4,29.72,SSW,202,4.0,16.0,37,0.00,,---,0.00,VWS V12.07,2013-06-18 02:45:00,
2013-06-17 19:46:00,66.9,40.5,29.72,South,188,7.0,16.0,38,0.00,,---,0.00,VWS V12.07,2013-06-18 02:46:00,
2013-06-17 19:49:00,66.1,39.1,29.72,South,182,2.0,16.0,37,0.00,,---,0.00,VWS V12.07,2013-06-18 02:49:00,
2013-06-17 19:50:00,66.0,38.3,29.72,South,186,7.0,16.0,36,0.00,,---,0.00,VWS V12.07,2013-06-18 02:50:00,
2013-06-17 19:51:00,66.0,38.3,29.72,South,182,2.0,16.0,36,0.00,,---,0.00,VWS V12.07,2013-06-18 02:51:00,
2013-06-17 19:54:00,65.8,39.5,29.72,South,186,5.0,16.0,38,0.00,,---,0.00,VWS V12.07,2013-06-18 02:54:00,
2013-06-17 19:55:00,65.6,39.3,29.72,South,186,4.0,16.0,38,0.00,,---,0.00,VWS V12.07,2013-06-18 02:55:00,
2013-06-17 19:56:00,65.5,38.6,29.72,SSE,155,2.0,16.0,37,0.00,,---,0.00,VWS V12.07,2013-06-18 02:56:00,
2013-06-17 20:00:00,65.3,39.1,29.74,SSW,206,5.0,16.0,38,0.00,,---,0.00,VWS V12.07,2013-06-18 03:00:00,
2013-06-17 20:01:00,65.2,39.0,29.74,South,188,2.0,16.0,38,0.00,,---,0.00,VWS V12.07,2013-06-18 03:01:00,
2013-06-17 20:03:00,65.2,39.6,29.74,South,178,8.0,16.0,39,0.00,,---,0.00,VWS V12.07,2013-06-18 03:03:00,
2013-06-17 20:05:00,65.0,38.1,29.74,South,178,4.0,16.0,37,0.00,,---,0.00,VWS V12.07,2013-06-18 03:05:00,
2013-06-17 20:06:00,65.0,38.1,29.74,SE,144,2.0,16.0,37,0.00,,---,0.00,VWS V12.07,2013-06-18 03:06:00,
2013-06-17 20:07:00,65.0,40.1,29.74,SW,227,5.0,16.0,40,0.00,,---,0.00,VWS V12.07,2013-06-18 03:07:00,
2013-06-17 20:08:00,64.8,39.9,29.74,South,178,2.0,16.0,40,0.00,,---,0.00,VWS V12.07,2013-06-18 03:08:00,
2013-06-17 20:10:00,64.7,39.2,29.74,South,182,3.0,16.0,39,0.00,,---,0.00,VWS V12.07,2013-06-18 03:10:00,
2013-06-17 20:12:00,64.5,39.0,29.74,South,174,0.0,16.0,39,0.00,,---,0.00,VWS V12.07,2013-06-18 03:12:00,
2013-06-17 20:13:00,64.5,39.0,29.74,South,175,5.0,16.0,39,0.00,,---,0.00,VWS V12.07,2013-06-18 03:13:00,
2013-06-17 20:14:00,64.5,39.0,29.74,South,175,2.0,16.0,39,0.00,,---,0.00,VWS V12.07,2013-06-18 03:14:00,
2013-06-17 20:15:00,64.5,39.0,29.73,South,172,1.0,16.0,39,0.00,,---,0.00,VWS V12.07,2013-06-18 03:15:00,
2013-06-17 20:17:00,64.5,39.0,29.73,South,174,0.0,16.0,39,0.00,,---,0.00,VWS V12.07,2013-06-18 03:17:00,
2013-06-17 20:18:00,64.3,39.5,29.73,SSW,205,6.0,16.0,40,0.00,,---,0.00,VWS V12.07,2013-06-18 03:18:00,
2013-06-17 20:19:00,64.0,39.2,29.73,South,182,5.0,16.0,40,0.00,,---,0.00,VWS V12.07,2013-06-18 03:19:00,
2013-06-17 20:21:00,64.0,39.8,29.73,South,182,5.0,16.0,41,0.00,,---,0.00,VWS V12.07,2013-06-18 03:21:00,
2013-06-17 20:23:00,63.9,39.1,29.73,South,182,3.0,16.0,40,0.00,,---,0.00,VWS V12.07,2013-06-18 03:23:00,
2013-06-17 20:25:00,63.7,39.0,29.73,South,184,3.0,16.0,40,0.00,,---,0.00,VWS V12.07,2013-06-18 03:25:00,
2013-06-17 20:26:00,63.5,40.0,29.73,South,185,7.0,16.0,42,0.00,,---,0.00,VWS V12.07,2013-06-18 03:26:00,
2013-06-17 20:28:00,63.5,38.8,29.73,South,185,5.0,16.0,40,0.00,,---,0.00,VWS V12.07,2013-06-18 03:28:00,
2013-06-17 20:29:00,63.4,38.7,29.73,South,185,3.0,16.0,40,0.00,,---,0.00,VWS V12.07,2013-06-18 03:29:00,
2013-06-17 20:30:00,63.4,38.7,29.73,South,185,0.0,16.0,40,0.00,,---,0.00,VWS V12.07,2013-06-18 03:30:00,
2013-06-17 20:31:00,63.4,39.3,29.73,South,185,2.0,16.0,41,0.00,,---,0.00,VWS V12.07,2013-06-18 03:31:00,
2013-06-17 20:33:00,63.1,39.7,29.73,South,184,7.0,16.0,42,0.00,,---,0.00,VWS V12.07,2013-06-18 03:33:00,
2013-06-17 20:34:00,63.1,39.7,29.73,South,184,7.0,16.0,42,0.00,,---,0.00,VWS V12.07,2013-06-18 03:34:00,
2013-06-17 20:35:00,63.1,39.7,29.73,South,189,7.0,16.0,42,0.00,,---,0.00,VWS V12.07,2013-06-18 03:35:00,
2013-06-17 20:37:00,62.9,39.5,29.73,South,176,3.0,16.0,42,0.00,,---,0.00,VWS V12.07,2013-06-18 03:37:00,
2013-06-17 20:39:00,62.7,39.3,29.73,South,176,5.0,16.0,42,0.00,,---,0.00,VWS V12.07,2013-06-18 03:39:00,
2013-06-17 20:40:00,62.7,39.9,29.73,South,176,2.0,16.0,43,0.00,,---,0.00,VWS V12.07,2013-06-18 03:40:00,
2013-06-17 20:42:00,62.6,39.8,29.73,South,179,6.0,16.0,43,0.00,,---,0.00,VWS V12.07,2013-06-18 03:42:00,
2013-06-17 20:45:00,62.3,39.5,29.75,South,185,8.0,16.0,43,0.00,,---,0.00,VWS V12.07,2013-06-18 03:45:00,
2013-06-17 20:47:00,62.3,38.9,29.75,South,189,5.0,16.0,42,0.00,,---,0.00,VWS V12.07,2013-06-18 03:47:00,
2013-06-17 20:48:00,62.1,39.4,29.75,South,188,5.0,16.0,43,0.00,,---,0.00,VWS V12.07,2013-06-18 03:48:00,
2013-06-17 20:50:00,62.0,39.3,29.75,South,189,5.0,16.0,43,0.00,,---,0.00,VWS V12.07,2013-06-18 03:50:00,
2013-06-17 20:51:00,62.0,39.3,29.75,South,191,5.0,16.0,43,0.00,,---,0.00,VWS V12.07,2013-06-18 03:51:00,
2013-06-17 20:52:00,62.0,39.3,29.75,South,191,2.0,16.0,43,0.00,,---,0.00,VWS V12.07,2013-06-18 03:52:00,
2013-06-17 20:53:00,62.0,39.3,29.75,South,191,1.0,16.0,43,0.00,,---,0.00,VWS V12.07,2013-06-18 03:53:00,
2013-06-17 20:54:00,61.8,39.1,29.75,South,191,2.0,16.0,43,0.00,,---,0.00,VWS V12.07,2013-06-18 03:54:00,
2013-06-17 20:55:00,61.6,40.1,29.75,South,191,6.0,16.0,45,0.00,,---,0.00,VWS V12.07,2013-06-18 03:55:00,
2013-06-17 20:56:00,61.6,40.1,29.75,South,189,6.0,16.0,45,0.00,,---,0.00,VWS V12.07,2013-06-18 03:56:00,
2013-06-17 20:57:00,61.5,40.0,29.75,South,169,3.0,16.0,45,0.00,,---,0.00,VWS V12.07,2013-06-18 03:57:00,
2013-06-17 20:58:00,61.5,38.8,29.75,South,169,3.0,16.0,43,0.00,,---,0.00,VWS V12.07,2013-06-18 03:58:00,
2013-06-17 20:59:00,61.5,38.8,29.75,South,171,2.0,16.0,43,0.00,,---,0.00,VWS V12.07,2013-06-18 03:59:00,
2013-06-17 21:00:00,61.3,39.2,29.75,South,171,6.0,16.0,44,0.00,,---,0.00,VWS V12.07,2013-06-18 04:00:00,
2013-06-17 21:01:00,61.3,39.2,29.75,South,169,3.0,16.0,44,0.00,,---,0.00,VWS V12.07,2013-06-18 04:01:00,
2013-06-17 21:06:00,61.0,39.0,29.75,South,185,2.0,16.0,44,0.00,,---,0.00,VWS V12.07,2013-06-18 04:06:00,
2013-06-17 21:07:00,61.0,39.0,29.75,South,188,6.0,16.0,44,0.00,,---,0.00,VWS V12.07,2013-06-18 04:07:00,
2013-06-17 21:11:00,60.9,38.9,29.75,SSW,192,6.0,16.0,44,0.00,,---,0.00,VWS V12.07,2013-06-18 04:11:00,
2013-06-17 21:12:00,60.9,38.9,29.75,South,191,3.0,16.0,44,0.00,,---,0.00,VWS V12.07,2013-06-18 04:12:00,
2013-06-17 21:16:00,60.5,39.1,29.74,South,182,3.0,16.0,45,0.00,,---,0.00,VWS V12.07,2013-06-18 04:16:00,
2013-06-17 21:17:00,60.5,39.1,29.74,South,182,2.0,16.0,45,0.00,,---,0.00,VWS V12.07,2013-06-18 04:17:00,
2013-06-17 21:21:00,60.4,39.5,29.74,South,182,3.0,16.0,46,0.00,,---,0.00,VWS V12.07,2013-06-18 04:21:00,
2013-06-17 21:22:00,60.4,38.4,29.74,South,182,4.0,16.0,44,0.00,,---,0.00,VWS V12.07,2013-06-18 04:22:00,
2013-06-17 21:23:00,60.2,39.4,29.74,South,184,5.0,16.0,46,0.00,,---,0.00,VWS V12.07,2013-06-18 04:23:00,
2013-06-17 21:26:00,60.1,39.8,29.74,South,184,3.0,16.0,47,0.00,,---,0.00,VWS V12.07,2013-06-18 04:26:00,
2013-06-17 21:27:00,60.1,39.3,29.74,South,184,2.0,16.0,46,0.00,,---,0.00,VWS V12.07,2013-06-18 04:27:00,
2013-06-17 21:28:00,60.1,39.3,29.74,South,185,6.0,16.0,46,0.00,,---,0.00,VWS V12.07,2013-06-18 04:28:00,
2013-06-17 21:32:00,59.9,39.6,29.75,SSW,198,5.0,16.0,47,0.00,,---,0.00,VWS V12.07,2013-06-18 04:32:00,
2013-06-17 21:33:00,59.9,39.6,29.75,SSW,193,3.0,16.0,47,0.00,,---,0.00,VWS V12.07,2013-06-18 04:33:00,
2013-06-17 21:37:00,59.9,39.1,29.75,South,184,1.0,16.0,46,0.00,,---,0.00,VWS V12.07,2013-06-18 04:37:00,
2013-06-17 21:38:00,59.9,39.1,29.75,SSE,148,6.0,16.0,46,0.00,,---,0.00,VWS V12.07,2013-06-18 04:38:00,
2013-06-17 21:42:00,59.8,39.0,29.75,SSE,148,0.0,16.0,46,0.00,,---,0.00,VWS V12.07,2013-06-18 04:42:00,
2013-06-17 21:43:00,59.8,39.0,29.75,SSE,148,0.0,16.0,46,0.00,,---,0.00,VWS V12.07,2013-06-18 04:43:00,
2013-06-17 21:44:00,59.8,39.0,29.75,SSE,148,0.0,16.0,46,0.00,,---,0.00,VWS V12.07,2013-06-18 04:44:00,
2013-06-17 21:46:00,59.8,39.0,29.76,SSE,148,0.0,16.0,46,0.00,,---,0.00,VWS V12.07,2013-06-18 04:46:00,
2013-06-17 21:48:00,59.8,39.0,29.76,SSE,147,0.0,16.0,46,0.00,,---,0.00,VWS V12.07,2013-06-18 04:48:00,
2013-06-17 21:49:00,59.8,39.5,29.76,SSE,147,0.0,16.0,47,0.00,,---,0.00,VWS V12.07,2013-06-18 04:49:00,
2013-06-17 21:51:00,59.8,40.1,29.76,SSE,147,0.0,16.0,48,0.00,,---,0.00,VWS V12.07,2013-06-18 04:51:00,
2013-06-17 21:53:00,59.6,39.9,29.76,SSE,147,0.0,16.0,48,0.00,,---,0.00,VWS V12.07,2013-06-18 04:53:00,
2013-06-17 21:54:00,59.6,39.9,29.76,SSE,147,0.0,16.0,48,0.00,,---,0.00,VWS V12.07,2013-06-18 04:54:00,
2013-06-17 21:56:00,59.6,39.9,29.76,SSE,147,0.0,16.0,48,0.00,,---,0.00,VWS V12.07,2013-06-18 04:56:00,
2013-06-17 21:58:00,59.6,40.4,29.76,SSE,147,0.0,16.0,49,0.00,,---,0.00,VWS V12.07,2013-06-18 04:58:00,
2013-06-17 21:59:00,59.5,40.3,29.76,SSE,147,0.0,16.0,49,0.00,,---,0.00,VWS V12.07,2013-06-18 04:59:00,
2013-06-17 22:00:00,59.5,40.3,29.76,SSE,147,0.0,16.0,49,0.00,,---,0.00,VWS V12.07,2013-06-18 05:00:00,
2013-06-17 22:01:00,59.5,40.3,29.76,SSE,147,0.0,16.0,49,0.00,,---,0.00,VWS V12.07,2013-06-18 05:01:00,
2013-06-17 22:03:00,59.3,40.7,29.76,SSE,147,0.0,16.0,50,0.00,,---,0.00,VWS V12.07,2013-06-18 05:03:00,
2013-06-17 22:04:00,59.3,40.7,29.76,SSE,147,0.0,16.0,50,0.00,,---,0.00,VWS V12.07,2013-06-18 05:04:00,
2013-06-17 22:05:00,59.3,40.7,29.76,SSE,154,2.0,16.0,50,0.00,,---,0.00,VWS V12.07,2013-06-18 05:05:00,
2013-06-17 22:06:00,59.0,40.9,29.76,SSE,154,0.0,16.0,51,0.00,,---,0.00,VWS V12.07,2013-06-18 05:06:00,
2013-06-17 22:08:00,58.9,40.8,29.76,SSE,154,0.0,16.0,51,0.00,,---,0.00,VWS V12.07,2013-06-18 05:08:00,
2013-06-17 22:09:00,58.7,41.1,29.76,SSE,154,2.0,16.0,52,0.00,,---,0.00,VWS V12.07,2013-06-18 05:09:00,
2013-06-17 22:10:00,58.6,41.0,29.76,SSE,154,2.0,16.0,52,0.00,,---,0.00,VWS V12.07,2013-06-18 05:10:00,
2013-06-17 22:12:00,58.1,40.6,29.76,SSE,154,2.0,16.0,52,0.00,,---,0.00,VWS V12.07,2013-06-18 05:12:00,
2013-06-17 22:13:00,58.1,41.1,29.76,SSE,154,0.0,16.0,53,0.00,,---,0.00,VWS V12.07,2013-06-18 05:13:00,
2013-06-17 22:14:00,58.0,41.0,29.76,SSE,154,0.0,16.0,53,0.00,,---,0.00,VWS V12.07,2013-06-18 05:14:00,
2013-06-17 22:15:00,57.8,40.8,29.76,SSE,154,1.0,16.0,53,0.00,,---,0.00,VWS V12.07,2013-06-18 05:15:00,
2013-06-17 22:16:00,57.6,40.6,29.76,SSE,152,0.0,16.0,53,0.00,,---,0.00,VWS V12.07,2013-06-18 05:16:00,
2013-06-17 22:17:00,57.5,40.5,29.76,SSE,152,0.0,16.0,53,0.00,,---,0.00,VWS V12.07,2013-06-18 05:17:00,
2013-06-17 22:19:00,57.5,40.5,29.76,SSE,152,0.0,16.0,53,0.00,,---,0.00,VWS V12.07,2013-06-18 05:19:00,
2013-06-17 22:20:00,57.5,40.5,29.76,SSE,152,0.0,16.0,53,0.00,,---,0.00,VWS V12.07,2013-06-18 05:20:00,
2013-06-17 22:21:00,57.3,40.3,29.76,SSE,152,0.0,16.0,53,0.00,,---,0.00,VWS V12.07,2013-06-18 05:21:00,
2013-06-17 22:23:00,57.3,40.3,29.76,SSE,152,0.0,16.0,53,0.00,,---,0.00,VWS V12.07,2013-06-18 05:23:00,
2013-06-17 22:24:00,57.3,39.8,29.76,SSE,152,0.0,16.0,52,0.00,,---,0.00,VWS V12.07,2013-06-18 05:24:00,
2013-06-17 22:25:00,57.3,39.8,29.76,SSE,152,0.0,16.0,52,0.00,,---,0.00,VWS V12.07,2013-06-18 05:25:00,
2013-06-17 22:26:00,57.3,39.8,29.76,SSE,152,0.0,16.0,52,0.00,,---,0.00,VWS V12.07,2013-06-18 05:26:00,
2013-06-17 22:27:00,57.3,39.8,29.76,SSE,152,0.0,16.0,52,0.00,,---,0.00,VWS V12.07,2013-06-18 05:27:00,
2013-06-17 22:28:00,57.2,39.8,29.76,SSE,152,0.0,16.0,52,0.00,,---,0.00,VWS V12.07,2013-06-18 05:28:00,
2013-06-17 22:30:00,57.2,40.2,29.76,SSE,152,0.0,16.0,53,0.00,,---,0.00,VWS V12.07,2013-06-18 05:30:00,
2013-06-17 22:31:00,57.0,39.6,29.76,SSE,152,0.0,16.0,52,0.00,,---,0.00,VWS V12.07,2013-06-18 05:31:00,
2013-06-17 22:32:00,56.9,40.0,29.76,SSE,152,0.0,16.0,53,0.00,,---,0.00,VWS V12.07,2013-06-18 05:32:00,
2013-06-17 22:33:00,56.9,40.0,29.76,SSE,152,0.0,16.0,53,0.00,,---,0.00,VWS V12.07,2013-06-18 05:33:00,
2013-06-17 22:35:00,56.9,40.0,29.76,SSE,152,0.0,16.0,53,0.00,,---,0.00,VWS V12.07,2013-06-18 05:35:00,
2013-06-17 22:36:00,56.9,40.0,29.76,SSE,152,0.0,16.0,53,0.00,,---,0.00,VWS V12.07,2013-06-18 05:36:00,
2013-06-17 22:37:00,56.7,39.8,29.76,SSE,152,0.0,16.0,53,0.00,,---,0.00,VWS V12.07,2013-06-18 05:37:00,
2013-06-17 22:38:00,56.7,39.8,29.76,SSE,152,0.0,16.0,53,0.00,,---,0.00,VWS V12.07,2013-06-18 05:38:00,
2013-06-17 22:41:00,56.6,39.7,29.76,SSE,152,0.0,16.0,53,0.00,,---,0.00,VWS V12.07,2013-06-18 05:41:00,
2013-06-17 22:43:00,56.6,39.7,29.76,SSE,152,0.0,16.0,53,0.00,,---,0.00,VWS V12.07,2013-06-18 05:43:00,
2013-06-17 22:46:00,56.5,40.1,29.76,SSE,152,0.0,16.0,54,0.00,,---,0.00,VWS V12.07,2013-06-18 05:46:00,
2013-06-17 22:48:00,56.5,40.1,29.76,SSE,152,0.0,16.0,54,0.00,,---,0.00,VWS V12.07,2013-06-18 05:48:00,
2013-06-17 22:51:00,56.3,39.9,29.76,SSE,152,0.0,16.0,54,0.00,,---,0.00,VWS V12.07,2013-06-18 05:51:00,
2013-06-17 22:52:00,56.3,39.9,29.76,SSE,152,0.0,16.0,54,0.00,,---,0.00,VWS V12.07,2013-06-18 05:52:00,
2013-06-17 22:53:00,56.3,39.9,29.76,SSE,152,0.0,16.0,54,0.00,,---,0.00,VWS V12.07,2013-06-18 05:53:00,
2013-06-17 22:54:00,56.3,39.9,29.76,SSE,152,0.0,16.0,54,0.00,,---,0.00,VWS V12.07,2013-06-18 05:54:00,
2013-06-17 22:56:00,56.2,39.8,29.76,SSE,152,0.0,16.0,54,0.00,,---,0.00,VWS V12.07,2013-06-18 05:56:00,
2013-06-17 22:57:00,56.2,39.8,29.76,SSE,152,0.0,16.0,54,0.00,,---,0.00,VWS V12.07,2013-06-18 05:57:00,
2013-06-17 22:58:00,56.2,39.8,29.76,SSE,152,0.0,16.0,54,0.00,,---,0.00,VWS V12.07,2013-06-18 05:58:00,
2013-06-17 22:59:00,56.2,39.8,29.76,SSE,152,0.0,16.0,54,0.00,,---,0.00,VWS V12.07,2013-06-18 05:59:00,
2013-06-17 23:02:00,55.9,39.5,29.76,SSE,152,0.0,16.0,54,0.00,,---,0.00,VWS V12.07,2013-06-18 06:02:00,
2013-06-17 23:03:00,55.7,39.8,29.76,SSE,152,0.0,16.0,55,0.00,,---,0.00,VWS V12.07,2013-06-18 06:03:00,
2013-06-17 23:04:00,55.7,39.8,29.76,SSE,152,0.0,16.0,55,0.00,,---,0.00,VWS V12.07,2013-06-18 06:04:00,
2013-06-17 23:07:00,55.1,39.7,29.76,SSE,152,0.0,16.0,56,0.00,,---,0.00,VWS V12.07,2013-06-18 06:07:00,
2013-06-17 23:08:00,55.1,39.7,29.76,SSE,152,0.0,16.0,56,0.00,,---,0.00,VWS V12.07,2013-06-18 06:08:00,
2013-06-17 23:09:00,55.1,39.7,29.76,SSE,152,0.0,16.0,56,0.00,,---,0.00,VWS V12.07,2013-06-18 06:09:00,
2013-06-17 23:10:00,55.0,39.6,29.76,SSE,152,0.0,16.0,56,0.00,,---,0.00,VWS V12.07,2013-06-18 06:10:00,
2013-06-17 23:12:00,54.7,39.3,29.76,SSE,152,0.0,16.0,56,0.00,,---,0.00,VWS V12.07,2013-06-18 06:12:00,
2013-06-17 23:13:00,54.7,39.8,29.76,SSE,152,0.0,16.0,57,0.00,,---,0.00,VWS V12.07,2013-06-18 06:13:00,
2013-06-17 23:14:00,54.5,39.6,29.77,SSE,152,0.0,16.0,57,0.00,,---,0.00,VWS V12.07,2013-06-18 06:14:00,
2013-06-17 23:15:00,54.5,39.6,29.77,SSE,152,0.0,16.0,57,0.00,,---,0.00,VWS V12.07,2013-06-18 06:15:00,
2013-06-17 23:17:00,54.2,39.8,29.77,SSE,152,0.0,16.0,58,0.00,,---,0.00,VWS V12.07,2013-06-18 06:17:00,
2013-06-17 23:18:00,54.2,39.8,29.77,SSE,152,0.0,16.0,58,0.00,,---,0.00,VWS V12.07,2013-06-18 06:18:00,
2013-06-17 23:19:00,54.1,39.7,29.77,SSE,152,0.0,16.0,58,0.00,,---,0.00,VWS V12.07,2013-06-18 06:19:00,
2013-06-17 23:20:00,54.1,39.7,29.77,SSE,152,0.0,16.0,58,0.00,,---,0.00,VWS V12.07,2013-06-18 06:20:00,
2013-06-17 23:22:00,53.9,39.5,29.77,SSE,151,0.0,16.0,58,0.00,,---,0.00,VWS V12.07,2013-06-18 06:22:00,
2013-06-17 23:23:00,53.9,39.5,29.77,SSE,151,0.0,16.0,58,0.00,,---,0.00,VWS V12.07,2013-06-18 06:23:00,
2013-06-17 23:25:00,53.8,39.4,29.77,SSE,160,1.0,16.0,58,0.00,,---,0.00,VWS V12.07,2013-06-18 06:25:00,
2013-06-17 23:27:00,53.6,39.2,29.77,SSE,160,0.0,16.0,58,0.00,,---,0.00,VWS V12.07,2013-06-18 06:27:00,
2013-06-17 23:28:00,53.5,39.1,29.77,SSE,160,0.0,16.0,58,0.00,,---,0.00,VWS V12.07,2013-06-18 06:28:00,
2013-06-17 23:30:00,53.3,39.3,29.76,SSE,160,0.0,16.0,59,0.00,,---,0.00,VWS V12.07,2013-06-18 06:30:00,
2013-06-17 23:31:00,53.3,39.3,29.76,SSE,160,0.0,16.0,59,0.00,,---,0.00,VWS V12.07,2013-06-18 06:31:00,
2013-06-17 23:33:00,53.2,39.3,29.76,SSE,160,0.0,16.0,59,0.00,,---,0.00,VWS V12.07,2013-06-18 06:33:00,
2013-06-17 23:36:00,52.9,39.0,29.76,SSE,160,3.0,16.0,59,0.00,,---,0.00,VWS V12.07,2013-06-18 06:36:00,
2013-06-17 23:38:00,53.1,39.2,29.76,South,171,0.0,16.0,59,0.00,,---,0.00,VWS V12.07,2013-06-18 06:38:00,
2013-06-17 23:39:00,53.1,38.7,29.76,South,171,2.0,16.0,58,0.00,,---,0.00,VWS V12.07,2013-06-18 06:39:00,
2013-06-17 23:41:00,53.2,38.8,29.76,South,176,5.0,16.0,58,0.00,,---,0.00,VWS V12.07,2013-06-18 06:41:00,
2013-06-17 23:43:00,53.3,38.9,29.76,SSW,195,1.0,16.0,58,0.00,,---,0.00,VWS V12.07,2013-06-18 06:43:00,
2013-06-17 23:44:00,53.5,39.1,29.76,SSW,195,3.0,16.0,58,0.00,,---,0.00,VWS V12.07,2013-06-18 06:44:00,
2013-06-17 23:46:00,53.6,38.8,29.76,South,185,6.0,16.0,57,0.00,,---,0.00,VWS V12.07,2013-06-18 06:46:00,
2013-06-17 23:48:00,53.9,38.6,29.76,SSW,195,2.0,16.0,56,0.00,,---,0.00,VWS V12.07,2013-06-18 06:48:00,
2013-06-17 23:49:00,53.9,39.5,29.76,SSW,195,3.0,16.0,58,0.00,,---,0.00,VWS V12.07,2013-06-18 06:49:00,
2013-06-17 23:51:00,54.2,38.9,29.76,SSW,193,3.0,16.0,56,0.00,,---,0.00,VWS V12.07,2013-06-18 06:51:00,
2013-06-17 23:53:00,54.2,38.9,29.76,SSW,193,4.0,16.0,56,0.00,,---,0.00,VWS V12.07,2013-06-18 06:53:00,
2013-06-17 23:54:00,54.2,38.9,29.76,SSW,193,2.0,16.0,56,0.00,,---,0.00,VWS V12.07,2013-06-18 06:54:00,
2013-06-17 23:56:00,54.4,39.5,29.76,SSW,193,5.0,16.0,57,0.00,,---,0.00,VWS V12.07,2013-06-18 06:56:00,
2013-06-17 23:58:00,54.4,38.6,29.76,SSW,193,5.0,16.0,55,0.00,,---,0.00,VWS V12.07,2013-06-18 06:58:00,
2013-06-17 23:59:00,54.4,38.6,29.76,SSW,193,3.0,16.0,55,0.00,,---,0.00,VWS V12.07,2013-06-18 06:59:00,